sensor_id;sensor_type;location;lat;lon;timestamp;P1;durP1;ratioP1;P2;durP2;ratioP2
68633;SDS011;55625;47.072;22.192;2022-10-04T00:01:48;11.68;;;4.20;;
68633;SDS011;55625;47.072;22.192;2022-10-04T00:04:28;15.83;;;4.93;;
68633;SDS011;55625;47.072;22.192;2022-10-04T00:07:06;13.38;;;3.78;;
68633;SDS011;55625;47.072;22.192;2022-10-04T00:12:17;9.65;;;4.22;;
68633;SDS011;55625;47.072;22.192;2022-10-04T00:14:45;14.05;;;4.43;;
68633;SDS011;55625;47.072;22.192;2022-10-04T00:17:12;10.00;;;4.00;;
68633;SDS011;55625;47.072;22.192;2022-10-04T00:19:47;8.77;;;2.88;;
68633;SDS011;55625;47.072;22.192;2022-10-04T00:22:16;7.55;;;2.58;;
68633;SDS011;55625;47.072;22.192;2022-10-04T00:25:00;6.47;;;1.92;;
68633;SDS011;55625;47.072;22.192;2022-10-04T00:27:37;8.48;;;2.92;;
68633;SDS011;55625;47.072;22.192;2022-10-04T00:30:24;4.40;;;1.70;;
68633;SDS011;55625;47.072;22.192;2022-10-04T00:33:00;7.75;;;2.03;;
68633;SDS011;55625;47.072;22.192;2022-10-04T00:43:05;4.68;;;1.70;;
68633;SDS011;55625;47.072;22.192;2022-10-04T00:45:39;4.25;;;1.70;;
68633;SDS011;55625;47.072;22.192;2022-10-04T00:51:26;3.80;;;1.67;;
68633;SDS011;55625;47.072;22.192;2022-10-04T00:56:48;5.40;;;2.50;;
68633;SDS011;55625;47.072;22.192;2022-10-04T01:02:15;5.18;;;1.85;;
68633;SDS011;55625;47.072;22.192;2022-10-04T01:04:47;5.82;;;1.25;;
68633;SDS011;55625;47.072;22.192;2022-10-04T01:07:32;4.63;;;1.67;;
68633;SDS011;55625;47.072;22.192;2022-10-04T01:10:07;4.75;;;1.50;;
68633;SDS011;55625;47.072;22.192;2022-10-04T01:12:55;4.45;;;1.08;;
68633;SDS011;55625;47.072;22.192;2022-10-04T01:18:40;2.90;;;1.00;;
68633;SDS011;55625;47.072;22.192;2022-10-04T01:31:25;6.53;;;2.65;;
68633;SDS011;55625;47.072;22.192;2022-10-04T01:33:56;7.47;;;1.77;;
68633;SDS011;55625;47.072;22.192;2022-10-04T01:36:23;7.78;;;2.13;;
68633;SDS011;55625;47.072;22.192;2022-10-04T01:38:51;8.48;;;1.98;;
68633;SDS011;55625;47.072;22.192;2022-10-04T01:41:27;6.25;;;2.13;;
68633;SDS011;55625;47.072;22.192;2022-10-04T01:44:26;4.40;;;1.50;;
68633;SDS011;55625;47.072;22.192;2022-10-04T01:47:14;6.50;;;1.47;;
68633;SDS011;55625;47.072;22.192;2022-10-04T01:49:48;5.50;;;1.45;;
68633;SDS011;55625;47.072;22.192;2022-10-04T01:54:48;7.88;;;1.75;;
68633;SDS011;55625;47.072;22.192;2022-10-04T01:57:40;3.75;;;1.45;;
68633;SDS011;55625;47.072;22.192;2022-10-04T02:00:22;4.70;;;1.70;;
68633;SDS011;55625;47.072;22.192;2022-10-04T02:03:02;4.38;;;1.80;;
68633;SDS011;55625;47.072;22.192;2022-10-04T02:05:33;4.32;;;1.20;;
68633;SDS011;55625;47.072;22.192;2022-10-04T02:08:04;3.95;;;1.50;;
68633;SDS011;55625;47.072;22.192;2022-10-04T02:10:38;3.85;;;1.50;;
68633;SDS011;55625;47.072;22.192;2022-10-04T02:13:08;3.40;;;1.10;;
68633;SDS011;55625;47.072;22.192;2022-10-04T02:15:39;4.25;;;1.17;;
68633;SDS011;55625;47.072;22.192;2022-10-04T02:18:12;3.45;;;0.73;;
68633;SDS011;55625;47.072;22.192;2022-10-04T02:20:42;4.25;;;1.52;;
68633;SDS011;55625;47.072;22.192;2022-10-04T02:23:09;3.92;;;1.17;;
68633;SDS011;55625;47.072;22.192;2022-10-04T02:25:37;4.07;;;1.37;;
68633;SDS011;55625;47.072;22.192;2022-10-04T02:28:03;3.22;;;0.98;;
68633;SDS011;55625;47.072;22.192;2022-10-04T02:30:37;3.95;;;1.15;;
68633;SDS011;55625;47.072;22.192;2022-10-04T02:33:42;5.88;;;0.85;;
68633;SDS011;55625;47.072;22.192;2022-10-04T02:36:13;3.15;;;1.00;;
68633;SDS011;55625;47.072;22.192;2022-10-04T02:39:02;4.33;;;1.63;;
68633;SDS011;55625;47.072;22.192;2022-10-04T02:41:40;5.15;;;1.23;;
68633;SDS011;55625;47.072;22.192;2022-10-04T02:44:49;3.38;;;1.33;;
68633;SDS011;55625;47.072;22.192;2022-10-04T02:47:23;5.13;;;1.42;;
68633;SDS011;55625;47.072;22.192;2022-10-04T02:49:57;3.92;;;1.48;;
68633;SDS011;55625;47.072;22.192;2022-10-04T02:52:41;4.73;;;1.63;;
68633;SDS011;55625;47.072;22.192;2022-10-04T02:55:27;2.47;;;1.00;;
68633;SDS011;55625;47.072;22.192;2022-10-04T02:57:55;3.22;;;0.88;;
68633;SDS011;55625;47.072;22.192;2022-10-04T03:00:24;3.08;;;1.10;;
68633;SDS011;55625;47.072;22.192;2022-10-04T03:06:04;4.03;;;1.00;;
68633;SDS011;55625;47.072;22.192;2022-10-04T03:11:23;4.15;;;1.05;;
68633;SDS011;55625;47.072;22.192;2022-10-04T03:13:58;5.82;;;1.27;;
68633;SDS011;55625;47.072;22.192;2022-10-04T03:16:26;6.93;;;2.08;;
68633;SDS011;55625;47.072;22.192;2022-10-04T03:19:03;4.40;;;1.63;;
68633;SDS011;55625;47.072;22.192;2022-10-04T03:21:31;4.65;;;0.88;;
68633;SDS011;55625;47.072;22.192;2022-10-04T03:23:58;4.88;;;1.90;;
68633;SDS011;55625;47.072;22.192;2022-10-04T03:26:31;3.75;;;1.13;;
68633;SDS011;55625;47.072;22.192;2022-10-04T03:29:25;4.32;;;1.30;;
68633;SDS011;55625;47.072;22.192;2022-10-04T03:31:55;4.20;;;1.83;;
68633;SDS011;55625;47.072;22.192;2022-10-04T03:34:32;3.53;;;1.23;;
68633;SDS011;55625;47.072;22.192;2022-10-04T03:37:01;5.40;;;2.00;;
68633;SDS011;55625;47.072;22.192;2022-10-04T03:39:31;3.78;;;1.40;;
68633;SDS011;55625;47.072;22.192;2022-10-04T03:42:18;5.00;;;1.70;;
68633;SDS011;55625;47.072;22.192;2022-10-04T03:44:53;5.27;;;1.37;;
68633;SDS011;55625;47.072;22.192;2022-10-04T03:47:39;4.05;;;1.35;;
68633;SDS011;55625;47.072;22.192;2022-10-04T03:52:52;5.75;;;1.23;;
68633;SDS011;55625;47.072;22.192;2022-10-04T03:55:33;4.35;;;1.27;;
68633;SDS011;55625;47.072;22.192;2022-10-04T03:58:08;5.77;;;1.40;;
68633;SDS011;55625;47.072;22.192;2022-10-04T04:00:42;5.45;;;1.55;;
68633;SDS011;55625;47.072;22.192;2022-10-04T04:03:40;5.13;;;1.63;;
68633;SDS011;55625;47.072;22.192;2022-10-04T04:06:34;4.30;;;1.88;;
68633;SDS011;55625;47.072;22.192;2022-10-04T04:09:46;5.90;;;1.38;;
68633;SDS011;55625;47.072;22.192;2022-10-04T04:12:22;10.67;;;4.07;;
68633;SDS011;55625;47.072;22.192;2022-10-04T04:15:11;7.97;;;3.25;;
68633;SDS011;55625;47.072;22.192;2022-10-04T04:17:49;6.20;;;2.75;;
68633;SDS011;55625;47.072;22.192;2022-10-04T04:25:42;10.90;;;3.50;;
68633;SDS011;55625;47.072;22.192;2022-10-04T04:30:56;8.70;;;3.92;;
68633;SDS011;55625;47.072;22.192;2022-10-04T04:33:57;8.60;;;3.08;;
68633;SDS011;55625;47.072;22.192;2022-10-04T04:36:27;7.07;;;2.83;;
68633;SDS011;55625;47.072;22.192;2022-10-04T04:39:06;10.17;;;4.43;;
68633;SDS011;55625;47.072;22.192;2022-10-04T04:42:05;9.38;;;3.25;;
68633;SDS011;55625;47.072;22.192;2022-10-04T04:44:35;12.30;;;3.90;;
68633;SDS011;55625;47.072;22.192;2022-10-04T04:47:24;14.30;;;5.63;;
68633;SDS011;55625;47.072;22.192;2022-10-04T04:52:51;17.03;;;5.90;;
68633;SDS011;55625;47.072;22.192;2022-10-04T04:55:35;16.60;;;6.20;;
68633;SDS011;55625;47.072;22.192;2022-10-04T04:58:07;14.43;;;6.22;;
68633;SDS011;55625;47.072;22.192;2022-10-04T05:00:40;20.85;;;6.45;;
68633;SDS011;55625;47.072;22.192;2022-10-04T05:03:14;23.40;;;7.40;;
68633;SDS011;55625;47.072;22.192;2022-10-04T05:05:44;20.80;;;7.03;;
68633;SDS011;55625;47.072;22.192;2022-10-04T05:08:21;17.95;;;6.90;;
68633;SDS011;55625;47.072;22.192;2022-10-04T05:16:30;16.58;;;6.97;;
68633;SDS011;55625;47.072;22.192;2022-10-04T05:19:13;13.70;;;5.83;;
68633;SDS011;55625;47.072;22.192;2022-10-04T05:21:46;14.45;;;5.10;;
68633;SDS011;55625;47.072;22.192;2022-10-04T05:24:20;15.50;;;5.75;;
68633;SDS011;55625;47.072;22.192;2022-10-04T05:27:03;12.25;;;5.45;;
68633;SDS011;55625;47.072;22.192;2022-10-04T05:29:35;17.45;;;4.85;;
68633;SDS011;55625;47.072;22.192;2022-10-04T05:35:19;10.90;;;4.78;;
68633;SDS011;55625;47.072;22.192;2022-10-04T05:41:53;8.15;;;2.88;;
68633;SDS011;55625;47.072;22.192;2022-10-04T05:44:36;9.70;;;3.15;;
68633;SDS011;55625;47.072;22.192;2022-10-04T05:47:16;10.13;;;3.30;;
68633;SDS011;55625;47.072;22.192;2022-10-04T05:49:48;13.90;;;4.22;;
68633;SDS011;55625;47.072;22.192;2022-10-04T06:03:07;19.45;;;5.45;;
68633;SDS011;55625;47.072;22.192;2022-10-04T06:06:15;21.73;;;6.97;;
68633;SDS011;55625;47.072;22.192;2022-10-04T06:18:07;11.77;;;4.22;;
68633;SDS011;55625;47.072;22.192;2022-10-04T06:23:46;5.53;;;2.20;;
68633;SDS011;55625;47.072;22.192;2022-10-04T06:26:26;6.75;;;2.85;;
68633;SDS011;55625;47.072;22.192;2022-10-04T06:29:13;6.90;;;2.30;;
68633;SDS011;55625;47.072;22.192;2022-10-04T06:34:43;12.48;;;5.32;;
68633;SDS011;55625;47.072;22.192;2022-10-04T07:00:23;10.15;;;3.22;;
68633;SDS011;55625;47.072;22.192;2022-10-04T07:02:52;8.15;;;3.50;;
68633;SDS011;55625;47.072;22.192;2022-10-04T07:05:40;6.80;;;3.17;;
68633;SDS011;55625;47.072;22.192;2022-10-04T07:21:36;6.25;;;2.70;;
68633;SDS011;55625;47.072;22.192;2022-10-04T07:24:18;7.00;;;2.67;;
68633;SDS011;55625;47.072;22.192;2022-10-04T07:27:07;7.50;;;2.70;;
68633;SDS011;55625;47.072;22.192;2022-10-04T07:29:38;8.23;;;1.60;;
68633;SDS011;55625;47.072;22.192;2022-10-04T07:32:15;7.53;;;1.97;;
68633;SDS011;55625;47.072;22.192;2022-10-04T07:34:51;28.05;;;6.05;;
68633;SDS011;55625;47.072;22.192;2022-10-04T07:37:59;26.02;;;7.78;;
68633;SDS011;55625;47.072;22.192;2022-10-04T07:40:56;11.45;;;6.35;;
68633;SDS011;55625;47.072;22.192;2022-10-04T07:43:57;9.90;;;3.78;;
68633;SDS011;55625;47.072;22.192;2022-10-04T07:46:58;19.77;;;9.10;;
68633;SDS011;55625;47.072;22.192;2022-10-04T07:49:50;11.93;;;4.25;;
68633;SDS011;55625;47.072;22.192;2022-10-04T08:00:52;12.43;;;6.80;;
68633;SDS011;55625;47.072;22.192;2022-10-04T08:14:52;4.10;;;2.37;;
68633;SDS011;55625;47.072;22.192;2022-10-04T08:17:50;4.72;;;1.55;;
68633;SDS011;55625;47.072;22.192;2022-10-04T08:20:33;6.47;;;2.10;;
68633;SDS011;55625;47.072;22.192;2022-10-04T08:29:20;4.73;;;0.90;;
68633;SDS011;55625;47.072;22.192;2022-10-04T08:52:51;8.95;;;1.55;;
68633;SDS011;55625;47.072;22.192;2022-10-04T09:08:20;4.65;;;2.08;;
68633;SDS011;55625;47.072;22.192;2022-10-04T09:14:54;3.83;;;1.37;;
68633;SDS011;55625;47.072;22.192;2022-10-04T09:34:54;3.83;;;1.67;;
68633;SDS011;55625;47.072;22.192;2022-10-04T09:40:33;5.78;;;1.63;;
68633;SDS011;55625;47.072;22.192;2022-10-04T09:46:04;5.18;;;0.90;;
68633;SDS011;55625;47.072;22.192;2022-10-04T10:00:48;3.67;;;1.80;;
68633;SDS011;55625;47.072;22.192;2022-10-04T10:04:20;8.18;;;2.10;;
68633;SDS011;55625;47.072;22.192;2022-10-04T10:06:46;5.00;;;1.85;;
68633;SDS011;55625;47.072;22.192;2022-10-04T10:13:39;5.80;;;1.37;;
68633;SDS011;55625;47.072;22.192;2022-10-04T10:38:50;2.45;;;0.55;;
68633;SDS011;55625;47.072;22.192;2022-10-04T10:47:21;2.50;;;0.82;;
68633;SDS011;55625;47.072;22.192;2022-10-04T10:56:34;2.23;;;0.60;;
68633;SDS011;55625;47.072;22.192;2022-10-04T11:02:56;2.95;;;0.80;;
68633;SDS011;55625;47.072;22.192;2022-10-04T11:28:48;2.97;;;0.98;;
68633;SDS011;55625;47.072;22.192;2022-10-04T11:31:40;3.85;;;1.13;;
68633;SDS011;55625;47.072;22.192;2022-10-04T11:35:02;3.00;;;0.43;;
68633;SDS011;55625;47.072;22.192;2022-10-04T11:47:09;2.47;;;0.82;;
68633;SDS011;55625;47.072;22.192;2022-10-04T11:50:25;2.45;;;1.23;;
68633;SDS011;55625;47.072;22.192;2022-10-04T11:59:57;4.18;;;0.65;;
68633;SDS011;55625;47.072;22.192;2022-10-04T12:05:46;3.35;;;0.98;;
68633;SDS011;55625;47.072;22.192;2022-10-04T12:29:59;4.25;;;0.75;;
68633;SDS011;55625;47.072;22.192;2022-10-04T12:33:18;3.08;;;1.15;;
68633;SDS011;55625;47.072;22.192;2022-10-04T12:36:11;2.65;;;0.88;;
68633;SDS011;55625;47.072;22.192;2022-10-04T12:53:17;3.03;;;0.73;;
68633;SDS011;55625;47.072;22.192;2022-10-04T13:07:43;2.65;;;0.68;;
68633;SDS011;55625;47.072;22.192;2022-10-04T13:30:24;12.68;;;3.17;;
68633;SDS011;55625;47.072;22.192;2022-10-04T13:51:02;8.25;;;2.13;;
68633;SDS011;55625;47.072;22.192;2022-10-04T13:56:54;6.95;;;3.22;;
68633;SDS011;55625;47.072;22.192;2022-10-04T13:59:39;7.68;;;4.22;;
68633;SDS011;55625;47.072;22.192;2022-10-04T14:05:40;5.45;;;1.35;;
68633;SDS011;55625;47.072;22.192;2022-10-04T14:22:57;6.03;;;1.77;;
68633;SDS011;55625;47.072;22.192;2022-10-04T14:32:03;11.82;;;2.90;;
68633;SDS011;55625;47.072;22.192;2022-10-04T14:35:16;11.63;;;2.38;;
68633;SDS011;55625;47.072;22.192;2022-10-04T14:38:24;13.53;;;3.87;;
68633;SDS011;55625;47.072;22.192;2022-10-04T14:47:57;15.80;;;5.95;;
68633;SDS011;55625;47.072;22.192;2022-10-04T14:50:37;7.15;;;3.10;;
68633;SDS011;55625;47.072;22.192;2022-10-04T15:10:53;14.18;;;4.28;;
68633;SDS011;55625;47.072;22.192;2022-10-04T15:13:52;9.50;;;2.88;;
68633;SDS011;55625;47.072;22.192;2022-10-04T15:21:57;10.47;;;2.53;;
68633;SDS011;55625;47.072;22.192;2022-10-04T15:38:52;19.92;;;7.10;;
68633;SDS011;55625;47.072;22.192;2022-10-04T15:54:02;18.88;;;7.18;;
68633;SDS011;55625;47.072;22.192;2022-10-04T15:57:11;24.30;;;9.25;;
68633;SDS011;55625;47.072;22.192;2022-10-04T16:00:18;22.63;;;8.95;;
68633;SDS011;55625;47.072;22.192;2022-10-04T16:05:29;28.07;;;8.90;;
68633;SDS011;55625;47.072;22.192;2022-10-04T16:22:30;27.30;;;9.70;;
68633;SDS011;55625;47.072;22.192;2022-10-04T16:24:59;24.92;;;8.27;;
68633;SDS011;55625;47.072;22.192;2022-10-04T16:39:36;18.92;;;7.13;;
68633;SDS011;55625;47.072;22.192;2022-10-04T16:42:29;21.80;;;7.70;;
68633;SDS011;55625;47.072;22.192;2022-10-04T16:56:19;22.48;;;8.73;;
68633;SDS011;55625;47.072;22.192;2022-10-04T17:10:11;31.58;;;9.98;;
68633;SDS011;55625;47.072;22.192;2022-10-04T17:16:12;28.47;;;10.43;;
68633;SDS011;55625;47.072;22.192;2022-10-04T17:19:12;31.63;;;10.77;;
68633;SDS011;55625;47.072;22.192;2022-10-04T17:22:13;20.45;;;8.70;;
68633;SDS011;55625;47.072;22.192;2022-10-04T17:27:57;23.13;;;8.93;;
68633;SDS011;55625;47.072;22.192;2022-10-04T17:30:45;23.63;;;9.10;;
68633;SDS011;55625;47.072;22.192;2022-10-04T17:33:56;21.70;;;8.63;;
68633;SDS011;55625;47.072;22.192;2022-10-04T17:36:38;23.25;;;9.32;;
68633;SDS011;55625;47.072;22.192;2022-10-04T17:42:50;31.77;;;11.65;;
68633;SDS011;55625;47.072;22.192;2022-10-04T17:45:51;28.33;;;11.63;;
68633;SDS011;55625;47.072;22.192;2022-10-04T17:48:51;34.15;;;13.90;;
68633;SDS011;55625;47.072;22.192;2022-10-04T17:51:41;31.65;;;13.85;;
68633;SDS011;55625;47.072;22.192;2022-10-04T17:54:37;30.10;;;14.27;;
68633;SDS011;55625;47.072;22.192;2022-10-04T18:00:21;33.57;;;12.07;;
68633;SDS011;55625;47.072;22.192;2022-10-04T18:08:11;22.17;;;9.07;;
68633;SDS011;55625;47.072;22.192;2022-10-04T18:11:25;21.83;;;9.30;;
68633;SDS011;55625;47.072;22.192;2022-10-04T18:14:37;25.17;;;8.82;;
68633;SDS011;55625;47.072;22.192;2022-10-04T18:22:47;19.83;;;7.65;;
68633;SDS011;55625;47.072;22.192;2022-10-04T18:25:21;20.03;;;8.33;;
68633;SDS011;55625;47.072;22.192;2022-10-04T18:28:01;19.55;;;9.15;;
68633;SDS011;55625;47.072;22.192;2022-10-04T18:39:25;23.50;;;9.98;;
68633;SDS011;55625;47.072;22.192;2022-10-04T18:42:06;28.23;;;8.93;;
68633;SDS011;55625;47.072;22.192;2022-10-04T18:44:42;30.33;;;8.57;;
68633;SDS011;55625;47.072;22.192;2022-10-04T18:50:13;22.77;;;8.68;;
68633;SDS011;55625;47.072;22.192;2022-10-04T19:05:30;20.67;;;7.18;;
68633;SDS011;55625;47.072;22.192;2022-10-04T19:11:46;17.95;;;6.72;;
68633;SDS011;55625;47.072;22.192;2022-10-04T19:20:39;16.55;;;6.03;;
68633;SDS011;55625;47.072;22.192;2022-10-04T19:26:10;16.02;;;5.50;;
68633;SDS011;55625;47.072;22.192;2022-10-04T19:28:48;13.18;;;5.57;;
68633;SDS011;55625;47.072;22.192;2022-10-04T19:37:25;18.52;;;7.80;;
68633;SDS011;55625;47.072;22.192;2022-10-04T19:40:19;19.15;;;8.43;;
68633;SDS011;55625;47.072;22.192;2022-10-04T19:43:10;15.82;;;7.10;;
68633;SDS011;55625;47.072;22.192;2022-10-04T19:48:47;20.50;;;6.20;;
68633;SDS011;55625;47.072;22.192;2022-10-04T19:54:10;18.65;;;6.95;;
68633;SDS011;55625;47.072;22.192;2022-10-04T19:56:43;19.45;;;6.38;;
68633;SDS011;55625;47.072;22.192;2022-10-04T19:59:17;21.40;;;7.30;;
68633;SDS011;55625;47.072;22.192;2022-10-04T20:01:50;19.15;;;6.55;;
68633;SDS011;55625;47.072;22.192;2022-10-04T20:04:16;20.80;;;7.35;;
68633;SDS011;55625;47.072;22.192;2022-10-04T20:07:03;16.90;;;6.10;;
68633;SDS011;55625;47.072;22.192;2022-10-04T20:12:41;17.97;;;6.53;;
68633;SDS011;55625;47.072;22.192;2022-10-04T20:18:01;14.55;;;5.80;;
68633;SDS011;55625;47.072;22.192;2022-10-04T20:31:51;15.75;;;5.78;;
68633;SDS011;55625;47.072;22.192;2022-10-04T20:33:54;11.88;;;5.15;;
68633;SDS011;55625;47.072;22.192;2022-10-04T20:39:31;17.80;;;5.63;;
68633;SDS011;55625;47.072;22.192;2022-10-04T20:44:57;16.65;;;5.63;;
68633;SDS011;55625;47.072;22.192;2022-10-04T20:47:51;19.23;;;6.68;;
68633;SDS011;55625;47.072;22.192;2022-10-04T20:50:27;17.25;;;5.78;;
68633;SDS011;55625;47.072;22.192;2022-10-04T20:53:20;14.17;;;5.13;;
68633;SDS011;55625;47.072;22.192;2022-10-04T20:56:17;15.65;;;4.38;;
68633;SDS011;55625;47.072;22.192;2022-10-04T20:59:03;11.55;;;4.45;;
68633;SDS011;55625;47.072;22.192;2022-10-04T21:07:06;11.90;;;4.40;;
68633;SDS011;55625;47.072;22.192;2022-10-04T21:09:41;14.63;;;4.78;;
68633;SDS011;55625;47.072;22.192;2022-10-04T21:15:11;14.15;;;4.80;;
68633;SDS011;55625;47.072;22.192;2022-10-04T21:17:58;16.08;;;5.57;;
68633;SDS011;55625;47.072;22.192;2022-10-04T21:23:26;15.45;;;5.18;;
68633;SDS011;55625;47.072;22.192;2022-10-04T21:28:47;17.27;;;5.30;;
68633;SDS011;55625;47.072;22.192;2022-10-04T21:31:23;16.83;;;5.32;;
68633;SDS011;55625;47.072;22.192;2022-10-04T21:33:49;13.83;;;5.00;;
68633;SDS011;55625;47.072;22.192;2022-10-04T21:36:15;15.38;;;5.55;;
68633;SDS011;55625;47.072;22.192;2022-10-04T21:38:41;15.45;;;5.30;;
68633;SDS011;55625;47.072;22.192;2022-10-04T21:41:07;13.68;;;4.00;;
68633;SDS011;55625;47.072;22.192;2022-10-04T21:43:33;17.83;;;4.43;;
68633;SDS011;55625;47.072;22.192;2022-10-04T21:45:59;11.00;;;3.97;;
68633;SDS011;55625;47.072;22.192;2022-10-04T21:48:25;11.32;;;3.70;;
68633;SDS011;55625;47.072;22.192;2022-10-04T21:50:51;12.70;;;4.43;;
68633;SDS011;55625;47.072;22.192;2022-10-04T21:53:18;9.03;;;4.17;;
68633;SDS011;55625;47.072;22.192;2022-10-04T21:55:45;15.35;;;4.30;;
68633;SDS011;55625;47.072;22.192;2022-10-04T21:58:12;11.55;;;4.13;;
68633;SDS011;55625;47.072;22.192;2022-10-04T22:00:38;13.88;;;3.95;;
68633;SDS011;55625;47.072;22.192;2022-10-04T22:03:03;13.57;;;4.20;;
68633;SDS011;55625;47.072;22.192;2022-10-04T22:05:29;15.88;;;4.82;;
68633;SDS011;55625;47.072;22.192;2022-10-04T22:07:55;14.57;;;5.18;;
68633;SDS011;55625;47.072;22.192;2022-10-04T22:10:22;16.70;;;4.45;;
68633;SDS011;55625;47.072;22.192;2022-10-04T22:12:48;15.07;;;4.27;;
68633;SDS011;55625;47.072;22.192;2022-10-04T22:15:14;10.27;;;3.95;;
68633;SDS011;55625;47.072;22.192;2022-10-04T22:17:41;8.32;;;3.30;;
68633;SDS011;55625;47.072;22.192;2022-10-04T22:20:07;10.43;;;3.55;;
68633;SDS011;55625;47.072;22.192;2022-10-04T22:22:33;11.77;;;4.28;;
68633;SDS011;55625;47.072;22.192;2022-10-04T22:24:59;11.20;;;4.60;;
68633;SDS011;55625;47.072;22.192;2022-10-04T22:27:25;13.85;;;4.03;;
68633;SDS011;55625;47.072;22.192;2022-10-04T22:29:54;12.75;;;3.70;;
68633;SDS011;55625;47.072;22.192;2022-10-04T22:32:21;13.47;;;3.67;;
68633;SDS011;55625;47.072;22.192;2022-10-04T22:34:51;11.65;;;3.53;;
68633;SDS011;55625;47.072;22.192;2022-10-04T22:37:26;12.48;;;4.60;;
68633;SDS011;55625;47.072;22.192;2022-10-04T22:39:54;10.80;;;3.15;;
68633;SDS011;55625;47.072;22.192;2022-10-04T22:42:20;14.05;;;3.92;;
68633;SDS011;55625;47.072;22.192;2022-10-04T22:44:52;13.90;;;3.03;;
68633;SDS011;55625;47.072;22.192;2022-10-04T22:47:18;10.82;;;3.63;;
68633;SDS011;55625;47.072;22.192;2022-10-04T22:49:44;10.70;;;3.38;;
68633;SDS011;55625;47.072;22.192;2022-10-04T22:52:17;13.35;;;3.30;;
68633;SDS011;55625;47.072;22.192;2022-10-04T22:54:49;12.50;;;2.87;;
68633;SDS011;55625;47.072;22.192;2022-10-04T22:57:17;12.23;;;3.92;;
68633;SDS011;55625;47.072;22.192;2022-10-04T22:59:48;9.88;;;3.78;;
68633;SDS011;55625;47.072;22.192;2022-10-04T23:02:17;10.05;;;3.38;;
68633;SDS011;55625;47.072;22.192;2022-10-04T23:04:53;6.93;;;2.78;;
68633;SDS011;55625;47.072;22.192;2022-10-04T23:07:23;11.87;;;2.90;;
68633;SDS011;55625;47.072;22.192;2022-10-04T23:09:49;10.52;;;2.58;;
68633;SDS011;55625;47.072;22.192;2022-10-04T23:12:15;8.32;;;3.78;;
68633;SDS011;55625;47.072;22.192;2022-10-04T23:14:41;9.93;;;3.58;;
68633;SDS011;55625;47.072;22.192;2022-10-04T23:19:48;12.98;;;3.80;;
68633;SDS011;55625;47.072;22.192;2022-10-04T23:22:36;15.25;;;4.30;;
68633;SDS011;55625;47.072;22.192;2022-10-04T23:25:05;11.40;;;4.45;;
68633;SDS011;55625;47.072;22.192;2022-10-04T23:27:40;8.75;;;3.45;;
68633;SDS011;55625;47.072;22.192;2022-10-04T23:30:08;10.10;;;2.97;;
68633;SDS011;55625;47.072;22.192;2022-10-04T23:32:44;10.02;;;3.28;;
68633;SDS011;55625;47.072;22.192;2022-10-04T23:35:19;12.57;;;3.53;;
68633;SDS011;55625;47.072;22.192;2022-10-04T23:37:49;7.22;;;3.35;;
68633;SDS011;55625;47.072;22.192;2022-10-04T23:40:17;9.70;;;2.95;;
68633;SDS011;55625;47.072;22.192;2022-10-04T23:42:46;9.93;;;2.57;;
68633;SDS011;55625;47.072;22.192;2022-10-04T23:45:34;7.60;;;2.90;;
68633;SDS011;55625;47.072;22.192;2022-10-04T23:48:07;10.95;;;2.60;;
68633;SDS011;55625;47.072;22.192;2022-10-04T23:50:37;8.30;;;2.50;;
68633;SDS011;55625;47.072;22.192;2022-10-04T23:53:05;7.68;;;2.90;;
68633;SDS011;55625;47.072;22.192;2022-10-04T23:56:01;8.37;;;1.77;;
68633;SDS011;55625;47.072;22.192;2022-10-04T23:58:33;8.43;;;2.40;;
